Time;durP1;ratioP1;P1;durP2;ratioP2;P2;SDS_P1;SDS_P2;PMS_P1;PMS_P2;Temp;Humidity;BMP_temperature;BMP_pressure;BME280_temperature;BME280_humidity;BME280_pressure;Samples;Min_cycle;Max_cycle;Signal;HPM_P1;HPM_P2
2023/11/08 00:00:39;;;;;;;6.00;1.98;;;;;;;;;;4948526;29;20732;-90
2023/11/08 00:03:24;;;;;;;2.53;1.20;;;;;;;;;;4963400;28;20038;-90
2023/11/08 00:06:11;;;;;;;3.17;1.77;;;;;;;;;;4956257;28;20066;-92
2023/11/08 00:08:59;;;;;;;6.95;1.80;;;;;;;;;;4938691;29;20035;-91
2023/11/08 00:11:44;;;;;;;2.05;1.42;;;;;;;;;;4946868;28;20065;-91
2023/11/08 00:14:29;;;;;;;3.47;1.80;;;;;;;;;;4939111;29;20434;-91
2023/11/08 00:17:16;;;;;;;5.22;1.73;;;;;;;;;;4951376;28;20073;-91
2023/11/08 00:20:02;;;;;;;3.55;1.90;;;;;;;;;;4958068;28;20035;-92
2023/11/08 00:22:47;;;;;;;3.22;1.77;;;;;;;;;;4955999;28;20042;-92
2023/11/08 00:25:33;;;;;;;3.88;1.73;;;;;;;;;;4957375;28;20034;-90
2023/11/08 00:28:18;;;;;;;4.63;1.80;;;;;;;;;;4951735;28;20110;-92
2023/11/08 00:31:04;;;;;;;3.25;1.70;;;;;;;;;;4955042;28;20027;-88
2023/11/08 00:33:49;;;;;;;3.30;1.52;;;;;;;;;;4959001;29;20051;-90
2023/11/08 00:36:34;;;;;;;2.30;1.35;;;;;;;;;;4964287;28;20663;-90
2023/11/08 00:39:20;;;;;;;7.28;2.20;;;;;;;;;;4957836;29;20339;-90
2023/11/08 00:42:05;;;;;;;3.25;1.73;;;;;;;;;;4978661;28;20042;-90
2023/11/08 00:44:50;;;;;;;4.70;1.73;;;;;;;;;;4961970;28;20418;-92
2023/11/08 00:47:37;;;;;;;1.98;1.20;;;;;;;;;;4965348;28;20022;-90
2023/11/08 00:50:23;;;;;;;4.05;1.95;;;;;;;;;;4959226;28;20027;-90
2023/11/08 00:53:10;;;;;;;5.65;2.45;;;;;;;;;;4951575;28;20065;-91
2023/11/08 00:55:56;;;;;;;3.65;1.33;;;;;;;;;;4940902;28;20074;-91
2023/11/08 00:58:41;;;;;;;2.30;1.38;;;;;;;;;;4948129;28;20022;-91
2023/11/08 01:01:30;;;;;;;2.38;1.55;;;;;;;;;;4973373;28;20018;-89
2023/11/08 01:04:16;;;;;;;5.00;1.60;;;;;;;;;;4967128;28;20569;-90
2023/11/08 01:07:01;;;;;;;2.33;1.20;;;;;;;;;;4974620;28;20100;-90
2023/11/08 01:32:59;;;;;;;3.58;1.50;;;;;;;;;;4807229;29;20100;-89
2023/11/08 01:35:45;;;;;;;4.03;1.25;;;;;;;;;;4811895;29;20038;-89
2023/11/08 01:38:30;;;;;;;6.85;1.73;;;;;;;;;;4910450;29;20094;-88
2023/11/08 01:41:16;;;;;;;6.25;1.67;;;;;;;;;;4935566;29;20490;-90
2023/11/08 01:44:03;;;;;;;4.63;1.65;;;;;;;;;;4921791;29;20119;-90
2023/11/08 01:47:30;;;;;;;;;;;;;;;;;;;;;
2023/11/08 01:50:19;;;;;;;3.78;1.35;;;;;;;;;;4929243;29;20033;-89
2023/11/08 01:53:04;;;;;;;2.58;1.20;;;;;;;;;;4937901;29;20023;-88
2023/11/08 01:55:52;;;;;;;2.55;1.30;;;;;;;;;;4936076;29;20045;-90
2023/11/08 01:58:38;;;;;;;3.60;1.45;;;;;;;;;;4933721;29;20027;-89
2023/11/08 02:01:25;;;;;;;2.70;1.20;;;;;;;;;;4930923;29;20115;-89
2023/11/08 02:04:10;;;;;;;6.22;1.13;;;;;;;;;;4925292;29;20496;-91
2023/11/08 02:10:33;;;;;;;3.75;1.20;;;;;;;;;;4917280;29;20024;-90
2023/11/08 02:13:46;;;;;;;3.08;1.17;;;;;;;;;;4943191;29;20047;-91
2023/11/08 02:16:34;;;;;;;6.40;1.45;;;;;;;;;;4934332;29;20085;-89
2023/11/08 02:19:20;;;;;;;4.25;1.35;;;;;;;;;;4926729;28;20077;-89
2023/11/08 02:22:05;;;;;;;4.20;1.40;;;;;;;;;;4931008;28;20051;-89
2023/11/08 02:24:50;;;;;;;5.57;1.45;;;;;;;;;;4934483;29;20386;-90
2023/11/08 02:27:36;;;;;;;2.65;1.23;;;;;;;;;;4928225;29;20574;-90
2023/11/08 02:30:23;;;;;;;2.78;1.52;;;;;;;;;;4935778;29;20031;-90
2023/11/08 02:33:26;;;;;;;2.83;1.30;;;;;;;;;;4928096;29;20364;-91
2023/11/08 02:36:21;;;;;;;4.35;1.58;;;;;;;;;;4935668;29;20027;-91
2023/11/08 02:39:06;;;;;;;2.42;1.20;;;;;;;;;;4917879;28;20034;-91
2023/11/08 02:41:52;;;;;;;2.28;1.33;;;;;;;;;;4936259;28;20101;-91
2023/11/08 02:44:38;;;;;;;4.88;1.38;;;;;;;;;;4939646;28;20039;-90
2023/11/08 02:47:23;;;;;;;5.07;1.20;;;;;;;;;;4946717;28;20479;-90
2023/11/08 02:50:10;;;;;;;3.08;1.13;;;;;;;;;;4941377;28;20034;-90
2023/11/08 02:52:55;;;;;;;2.55;1.38;;;;;;;;;;4946274;29;20390;-91
2023/11/08 02:59:21;;;;;;;4.53;1.38;;;;;;;;;;4895840;29;20711;-91
2023/11/08 03:02:06;;;;;;;3.60;1.23;;;;;;;;;;4889733;28;20055;-89
2023/11/08 03:04:51;;;;;;;2.13;1.10;;;;;;;;;;4949903;28;20038;-90
2023/11/08 03:07:37;;;;;;;3.13;1.30;;;;;;;;;;4941623;28;20019;-91
2023/11/08 03:10:22;;;;;;;1.10;0.95;;;;;;;;;;4933177;29;20019;-90
2023/11/08 03:16:48;;;;;;;2.13;0.90;;;;;;;;;;4893813;29;20060;-93
2023/11/08 03:23:33;;;;;;;4.05;1.17;;;;;;;;;;4925528;29;20068;-91
2023/11/08 03:33:01;;;;;;;4.63;1.70;;;;;;;;;;4939811;28;20061;-90
2023/11/08 03:35:47;;;;;;;2.30;1.02;;;;;;;;;;4922596;29;20024;-90
2023/11/08 03:38:32;;;;;;;4.75;1.25;;;;;;;;;;4922269;29;20453;-90
2023/11/08 03:49:27;;;;;;;3.00;1.42;;;;;;;;;;4910644;29;20036;-91
2023/11/08 03:56:38;;;;;;;;;;;;;;;;;;;;;
2023/11/08 03:59:24;;;;;;;3.53;1.27;;;;;;;;;;4878316;29;20035;-89
2023/11/08 04:02:09;;;;;;;2.58;1.45;;;;;;;;;;4952031;28;20091;-89
2023/11/08 04:04:54;;;;;;;2.22;1.05;;;;;;;;;;4934814;29;20499;-90
2023/11/08 04:07:39;;;;;;;2.95;1.23;;;;;;;;;;4927111;28;20031;-90
2023/11/08 04:10:26;;;;;;;1.60;1.00;;;;;;;;;;4936989;28;20031;-91
2023/11/08 04:13:11;;;;;;;1.80;1.20;;;;;;;;;;4938036;28;20397;-89
2023/11/08 04:15:56;;;;;;;1.67;1.05;;;;;;;;;;4924271;29;20031;-89
2023/11/08 04:18:47;;;;;;;2.58;1.05;;;;;;;;;;4927700;29;20082;-90
2023/11/08 04:21:35;;;;;;;2.58;2.08;;;;;;;;;;4941259;29;20038;-89
2023/11/08 04:24:33;;;;;;;6.22;1.13;;;;;;;;;;4954058;28;20528;-92
2023/11/08 04:48:32;;;;;;;3.28;1.83;;;;;;;;;;4795770;30;20089;-91
2023/11/08 05:28:10;;;;;;;3.55;1.50;;;;;;;;;;4917867;29;20046;-87
2023/11/08 05:30:55;;;;;;;4.45;1.35;;;;;;;;;;4947845;28;20027;-86
2023/11/08 05:33:40;;;;;;;9.48;1.90;;;;;;;;;;4946731;28;20050;-88
2023/11/08 05:36:29;;;;;;;6.18;1.52;;;;;;;;;;4956994;28;20455;-87
2023/11/08 05:39:21;;;;;;;6.97;1.70;;;;;;;;;;4955166;28;20035;-88
2023/11/08 05:45:55;;;;;;;3.60;1.33;;;;;;;;;;4932343;28;20035;-88
2023/11/08 05:53:05;;;;;;;4.25;1.30;;;;;;;;;;4885619;29;20412;-90
2023/11/08 05:55:55;;;;;;;5.03;1.70;;;;;;;;;;4877980;29;20033;-92
2023/11/08 06:02:09;;;;;;;7.47;1.60;;;;;;;;;;4863305;29;20151;-89
2023/11/08 06:04:57;;;;;;;2.80;1.40;;;;;;;;;;4887747;29;20068;-88
2023/11/08 06:07:44;;;;;;;3.70;1.38;;;;;;;;;;4873158;29;20069;-90
2023/11/08 06:10:31;;;;;;;4.20;1.90;;;;;;;;;;4866280;29;20037;-89
2023/11/08 06:13:16;;;;;;;5.72;1.80;;;;;;;;;;4861886;29;20017;-89
2023/11/08 06:16:01;;;;;;;8.57;2.40;;;;;;;;;;4895443;28;20147;-90
2023/11/08 06:18:47;;;;;;;3.40;1.60;;;;;;;;;;4935798;28;20032;-86
2023/11/08 06:21:41;;;;;;;4.88;1.58;;;;;;;;;;4953047;28;20031;-92
2023/11/08 06:24:27;;;;;;;4.72;1.58;;;;;;;;;;4935628;29;20047;-91
2023/11/08 06:27:12;;;;;;;4.03;1.63;;;;;;;;;;4936535;29;20063;-88
2023/11/08 06:30:00;;;;;;;2.75;1.70;;;;;;;;;;4934084;29;20027;-90
2023/11/08 06:32:45;;;;;;;4.82;2.03;;;;;;;;;;4934460;29;20031;-89
2023/11/08 06:35:31;;;;;;;5.43;1.48;;;;;;;;;;4938803;28;20119;-87
2023/11/08 06:38:21;;;;;;;4.63;1.77;;;;;;;;;;4938348;28;20031;-89
2023/11/08 07:08:40;;;;;;;5.18;2.50;;;;;;;;;;4969669;28;20074;-91
2023/11/08 11:17:27;;;;;;;2.70;1.20;;;;;;;;;;6114081;23;20329;-92
2023/11/08 11:27:40;;;;;;;1.63;1.20;;;;;;;;;;4926568;29;20055;-92
2023/11/08 12:21:06;;;;;;;3.38;1.30;;;;;;;;;;6007185;23;20073;-88
2023/11/08 12:24:13;;;;;;;26.38;4.47;;;;;;;;;;4975177;28;20055;-92
2023/11/08 12:27:21;;;;;;;2.88;1.20;;;;;;;;;;4962798;28;20026;-93
2023/11/08 12:38:01;;;;;;;;;;;;;;;;;;;;;
2023/11/08 13:15:04;;;;;;;4.25;1.83;;;;;;;;;;5683969;23;20533;-91
2023/11/08 13:24:53;;;;;;;4.97;1.10;;;;;;;;;;4957882;28;20418;-93
2023/11/08 13:59:01;;;;;;;2.95;1.08;;;;;;;;;;4865004;29;20092;-92
2023/11/08 17:37:14;;;;;;;13.48;4.18;;;;;;;;;;5559231;23;20054;-91
2023/11/08 18:10:28;;;;;;;8.35;4.13;;;;;;;;;;5579103;23;20409;-91
2023/11/08 18:24:03;;;;;;;8.07;3.13;;;;;;;;;;4980741;28;20396;-94
2023/11/08 18:26:48;;;;;;;9.05;3.47;;;;;;;;;;4950997;28;20048;-85
2023/11/08 18:29:34;;;;;;;9.80;3.20;;;;;;;;;;4956666;28;20046;-87
2023/11/08 18:32:19;;;;;;;8.40;4.07;;;;;;;;;;4954828;28;20027;-86
2023/11/08 18:35:05;;;;;;;10.60;4.18;;;;;;;;;;4953746;28;20085;-87
2023/11/08 18:37:50;;;;;;;21.38;5.00;;;;;;;;;;4954586;28;20073;-86
2023/11/08 18:40:35;;;;;;;11.25;3.92;;;;;;;;;;4952256;28;20062;-87
2023/11/08 18:43:24;;;;;;;8.18;3.60;;;;;;;;;;4952603;28;20035;-84
2023/11/08 18:46:10;;;;;;;11.60;4.05;;;;;;;;;;4939823;28;20023;-85
2023/11/08 18:48:56;;;;;;;9.73;4.05;;;;;;;;;;4951208;28;20089;-85
2023/11/08 18:51:41;;;;;;;12.18;4.80;;;;;;;;;;4952938;28;20485;-88
2023/11/08 18:54:26;;;;;;;10.98;6.03;;;;;;;;;;4958636;28;20038;-88
2023/11/08 18:57:12;;;;;;;13.05;6.78;;;;;;;;;;4961613;28;20074;-89
2023/11/08 18:59:57;;;;;;;10.43;4.93;;;;;;;;;;4957048;28;20031;-84
2023/11/08 19:02:42;;;;;;;11.85;5.22;;;;;;;;;;4955427;28;20031;-85
2023/11/08 19:05:28;;;;;;;9.85;3.97;;;;;;;;;;4957486;28;20041;-86
2023/11/08 19:08:13;;;;;;;6.97;3.63;;;;;;;;;;4966602;28;20473;-86
2023/11/08 19:10:58;;;;;;;9.93;3.72;;;;;;;;;;4969286;28;20418;-87
2023/11/08 19:13:43;;;;;;;10.10;5.07;;;;;;;;;;4972391;28;20509;-87
2023/11/08 19:16:28;;;;;;;9.48;4.88;;;;;;;;;;4978197;28;20675;-86
2023/11/08 19:19:15;;;;;;;9.65;4.07;;;;;;;;;;4975974;28;20394;-85
2023/11/08 19:22:00;;;;;;;10.63;3.83;;;;;;;;;;4970888;28;20029;-86
2023/11/08 19:24:45;;;;;;;11.57;4.05;;;;;;;;;;4973275;28;20022;-82
2023/11/08 19:27:31;;;;;;;10.95;4.32;;;;;;;;;;4975530;28;20049;-87
2023/11/08 19:30:17;;;;;;;10.20;3.78;;;;;;;;;;4976054;28;20018;-85
2023/11/08 19:33:02;;;;;;;9.23;4.20;;;;;;;;;;4977418;28;20057;-87
2023/11/08 19:35:48;;;;;;;7.50;3.70;;;;;;;;;;4972898;28;20034;-85
2023/11/08 19:38:33;;;;;;;9.07;4.30;;;;;;;;;;4975051;28;20046;-85
2023/11/08 19:41:18;;;;;;;10.25;4.65;;;;;;;;;;4976791;28;20504;-85
2023/11/08 19:44:04;;;;;;;10.70;4.28;;;;;;;;;;4975706;28;20037;-84
2023/11/08 19:46:49;;;;;;;8.50;3.90;;;;;;;;;;4976179;28;20077;-84
2023/11/08 19:49:34;;;;;;;7.97;4.28;;;;;;;;;;4974326;28;20064;-85
2023/11/08 19:52:21;;;;;;;8.82;5.15;;;;;;;;;;4973735;28;20431;-85
2023/11/08 19:55:07;;;;;;;10.18;4.50;;;;;;;;;;4973811;28;20448;-84
2023/11/08 19:57:52;;;;;;;10.95;5.10;;;;;;;;;;4974635;28;20026;-83
2023/11/08 20:00:37;;;;;;;10.45;4.60;;;;;;;;;;4973501;28;20118;-85
2023/11/08 20:03:23;;;;;;;8.52;4.85;;;;;;;;;;4978150;28;20057;-84
2023/11/08 20:06:08;;;;;;;9.07;4.30;;;;;;;;;;4981978;28;20076;-85
2023/11/08 20:08:53;;;;;;;9.10;4.75;;;;;;;;;;4967576;28;20271;-83
2023/11/08 20:11:38;;;;;;;8.90;4.00;;;;;;;;;;4972191;28;20054;-86
2023/11/08 20:14:24;;;;;;;9.85;4.70;;;;;;;;;;4970527;28;20033;-85
2023/11/08 20:17:09;;;;;;;9.38;3.88;;;;;;;;;;4963155;28;20081;-83
2023/11/08 20:19:56;;;;;;;13.85;6.30;;;;;;;;;;4969524;28;20057;-82
2023/11/08 20:22:42;;;;;;;14.50;7.13;;;;;;;;;;4970255;28;21419;-82
2023/11/08 20:25:27;;;;;;;12.23;6.28;;;;;;;;;;4975982;28;20058;-82
2023/11/08 20:28:12;;;;;;;12.45;5.22;;;;;;;;;;4966671;28;20060;-82
2023/11/08 20:31:01;;;;;;;7.95;4.60;;;;;;;;;;4969235;28;20034;-83
2023/11/08 20:33:46;;;;;;;9.17;4.87;;;;;;;;;;4970567;28;20710;-83
2023/11/08 20:36:31;;;;;;;8.85;4.32;;;;;;;;;;4968055;28;20417;-81
2023/11/08 20:39:16;;;;;;;8.38;4.63;;;;;;;;;;4969461;28;20477;-83
2023/11/08 20:42:04;;;;;;;9.52;4.82;;;;;;;;;;4967606;28;20385;-82
2023/11/08 20:44:49;;;;;;;6.78;3.72;;;;;;;;;;4968315;28;20034;-83
2023/11/08 20:47:35;;;;;;;10.00;3.80;;;;;;;;;;4969611;28;20038;-81
2023/11/08 20:50:21;;;;;;;8.52;3.78;;;;;;;;;;4971472;28;20298;-83
2023/11/08 20:53:08;;;;;;;7.93;4.50;;;;;;;;;;4968346;28;20113;-84
2023/11/08 20:55:53;;;;;;;10.07;4.50;;;;;;;;;;4967505;28;20030;-84
2023/11/08 20:58:39;;;;;;;10.07;3.95;;;;;;;;;;4970908;28;20173;-82
2023/11/08 21:01:24;;;;;;;9.73;4.93;;;;;;;;;;4969844;28;20560;-83
2023/11/08 21:04:10;;;;;;;8.32;4.75;;;;;;;;;;4971854;28;20034;-83
2023/11/08 21:06:56;;;;;;;10.23;4.75;;;;;;;;;;4981284;28;20037;-83
2023/11/08 21:09:41;;;;;;;10.45;4.13;;;;;;;;;;4982820;28;20019;-84
2023/11/08 21:12:29;;;;;;;14.00;4.65;;;;;;;;;;4967922;28;20035;-85
2023/11/08 21:15:14;;;;;;;9.88;4.60;;;;;;;;;;4969313;29;20042;-85
2023/11/08 21:18:00;;;;;;;6.78;3.72;;;;;;;;;;4963938;28;20592;-85
2023/11/08 21:20:45;;;;;;;7.05;3.58;;;;;;;;;;4948380;29;20043;-87
2023/11/08 21:23:31;;;;;;;10.02;5.00;;;;;;;;;;4959968;28;20023;-85
2023/11/08 21:26:16;;;;;;;8.82;4.22;;;;;;;;;;4958307;28;20415;-86
2023/11/08 21:29:02;;;;;;;7.20;4.18;;;;;;;;;;4953623;28;20133;-87
2023/11/08 21:31:47;;;;;;;9.77;3.88;;;;;;;;;;4935197;28;20108;-86
2023/11/08 21:34:32;;;;;;;6.82;3.78;;;;;;;;;;4935491;28;20031;-86
2023/11/08 21:37:17;;;;;;;8.48;3.90;;;;;;;;;;4948598;29;20257;-86
2023/11/08 21:40:04;;;;;;;9.43;4.22;;;;;;;;;;4947962;28;20038;-84
2023/11/08 21:42:52;;;;;;;7.45;3.90;;;;;;;;;;4949693;29;20031;-85
2023/11/08 21:45:40;;;;;;;6.32;3.63;;;;;;;;;;4945060;28;20647;-85
2023/11/08 21:48:25;;;;;;;6.30;3.92;;;;;;;;;;4946862;29;20043;-83
2023/11/08 21:51:10;;;;;;;8.85;3.83;;;;;;;;;;4947472;28;20050;-85
2023/11/08 21:53:55;;;;;;;6.97;3.97;;;;;;;;;;4949082;28;20023;-85
2023/11/08 21:56:41;;;;;;;9.25;3.60;;;;;;;;;;4948701;29;20023;-84
2023/11/08 21:59:28;;;;;;;6.75;3.72;;;;;;;;;;4936780;29;20035;-85
2023/11/08 22:02:13;;;;;;;8.20;3.38;;;;;;;;;;4955685;28;20034;-84
2023/11/08 22:04:59;;;;;;;8.30;3.45;;;;;;;;;;4937481;28;20035;-85
2023/11/08 22:07:44;;;;;;;9.75;3.85;;;;;;;;;;4947479;29;20039;-86
2023/11/08 22:10:30;;;;;;;7.85;3.90;;;;;;;;;;4957374;28;20038;-88
2023/11/08 22:13:15;;;;;;;8.95;4.07;;;;;;;;;;4972061;28;20220;-87
2023/11/08 22:16:00;;;;;;;6.88;3.53;;;;;;;;;;4960948;28;20038;-87
2023/11/08 22:18:46;;;;;;;7.43;3.65;;;;;;;;;;4974138;28;20038;-88
2023/11/08 22:21:31;;;;;;;8.38;3.50;;;;;;;;;;4968701;28;20050;-87
2023/11/08 22:24:16;;;;;;;7.25;4.18;;;;;;;;;;4973518;28;20040;-86
2023/11/08 22:27:03;;;;;;;10.88;4.47;;;;;;;;;;4973498;28;20026;-86
2023/11/08 22:29:48;;;;;;;6.43;4.20;;;;;;;;;;4975992;28;20030;-88
2023/11/08 22:32:33;;;;;;;7.43;4.10;;;;;;;;;;4972487;28;20038;-88
2023/11/08 22:35:19;;;;;;;7.13;4.15;;;;;;;;;;4975013;28;20029;-88
2023/11/08 22:38:04;;;;;;;16.33;4.13;;;;;;;;;;4971844;28;20049;-86
2023/11/08 22:40:49;;;;;;;7.95;3.17;;;;;;;;;;4977429;28;20026;-87
2023/11/08 22:43:35;;;;;;;7.20;3.58;;;;;;;;;;4978828;28;20084;-86
2023/11/08 22:46:21;;;;;;;6.97;3.67;;;;;;;;;;4980466;28;20030;-87
2023/11/08 22:49:06;;;;;;;13.40;4.32;;;;;;;;;;4977930;28;20023;-86
2023/11/08 22:51:51;;;;;;;9.68;3.35;;;;;;;;;;4982699;28;20046;-83
2023/11/08 22:54:37;;;;;;;9.73;3.78;;;;;;;;;;4974149;28;20043;-85
2023/11/08 22:57:22;;;;;;;7.25;3.50;;;;;;;;;;4974028;28;20540;-86
2023/11/08 23:00:15;;;;;;;6.22;3.33;;;;;;;;;;4975838;28;20056;-85
2023/11/08 23:03:00;;;;;;;8.82;3.80;;;;;;;;;;4971050;28;20033;-83
2023/11/08 23:05:46;;;;;;;9.02;4.10;;;;;;;;;;4976534;28;20030;-85
2023/11/08 23:08:31;;;;;;;4.53;3.05;;;;;;;;;;4958596;28;20609;-84
2023/11/08 23:11:16;;;;;;;13.82;3.50;;;;;;;;;;4970903;28;20042;-85
2023/11/08 23:14:02;;;;;;;7.78;3.88;;;;;;;;;;4976703;28;20044;-86
2023/11/08 23:16:48;;;;;;;8.13;3.65;;;;;;;;;;4978475;28;20030;-84
2023/11/08 23:19:34;;;;;;;7.78;3.45;;;;;;;;;;4978766;28;20496;-84
2023/11/08 23:22:20;;;;;;;8.93;3.67;;;;;;;;;;4961784;28;20105;-84
2023/11/08 23:25:06;;;;;;;9.85;3.65;;;;;;;;;;4974028;28;20446;-84
2023/11/08 23:27:51;;;;;;;7.10;3.63;;;;;;;;;;4977131;28;20022;-85
2023/11/08 23:30:36;;;;;;;7.90;4.05;;;;;;;;;;4975639;28;20029;-85
2023/11/08 23:33:22;;;;;;;10.00;4.88;;;;;;;;;;4958409;28;20019;-86
2023/11/08 23:36:09;;;;;;;9.80;3.83;;;;;;;;;;4980791;28;20030;-85
2023/11/08 23:38:54;;;;;;;9.60;3.65;;;;;;;;;;4978336;28;20022;-85
2023/11/08 23:41:40;;;;;;;7.82;3.17;;;;;;;;;;4975127;28;20146;-85
2023/11/08 23:44:25;;;;;;;6.80;2.97;;;;;;;;;;4976916;28;20113;-84
2023/11/08 23:47:11;;;;;;;5.13;3.20;;;;;;;;;;4984521;28;20027;-84
2023/11/08 23:49:56;;;;;;;11.25;3.47;;;;;;;;;;4971559;28;20458;-85
2023/11/08 23:52:42;;;;;;;6.32;3.20;;;;;;;;;;4976885;28;20038;-85
2023/11/08 23:55:27;;;;;;;6.63;3.25;;;;;;;;;;4977662;28;20035;-85
2023/11/08 23:58:14;;;;;;;9.30;3.30;;;;;;;;;;4975662;28;20041;-84
